Time;durP1;ratioP1;P1;durP2;ratioP2;P2;SDS_P1;SDS_P2;PMS_P1;PMS_P2;Temp;Humidity;BMP_temperature;BMP_pressure;BME280_temperature;BME280_humidity;BME280_pressure;Samples;Min_cycle;Max_cycle;Signal;HPM_P1;HPM_P2
2021/05/11 00:00:59;;;;;;;0.93;0.10;;;;;;;11.94;73.13;100348.19;451926;115;929960;-72
2021/05/11 00:02:02;;;;;;;0.31;0.11;;;;;;;11.92;73.12;100361.23;451922;115;930455;-73
2021/05/11 00:03:05;;;;;;;0.44;0.21;;;;;;;11.92;73.20;100361.23;452665;115;922674;-73
2021/05/11 00:04:09;;;;;;;0.12;0.11;;;;;;;11.90;73.20;100361.48;451487;115;930192;-73
2021/05/11 00:05:13;;;;;;;0.24;0.13;;;;;;;11.91;72.86;100356.86;441906;117;926429;-73
2021/05/11 00:06:18;;;;;;;0.89;0.21;;;;;;;11.88;72.80;100355.41;450604;115;922484;-72
2021/05/11 00:07:21;;;;;;;0.36;0.30;;;;;;;11.85;73.04;100350.41;451615;115;922563;-73
2021/05/11 00:08:25;;;;;;;1.01;0.23;;;;;;;11.85;73.11;100355.04;451283;115;930405;-73
2021/05/11 00:09:29;;;;;;;0.31;0.20;;;;;;;11.85;73.24;100350.41;440654;118;924454;-73
2021/05/11 00:10:33;;;;;;;0.35;0.20;;;;;;;11.85;73.14;100353.14;460586;112;925624;-71
2021/05/11 00:11:37;;;;;;;0.33;0.22;;;;;;;11.86;73.08;100351.22;460166;112;924032;-72
2021/05/11 00:12:40;;;;;;;0.95;0.92;;;;;;;11.84;73.22;100348.73;461280;112;924019;-73
2021/05/11 00:13:44;;;;;;;0.76;0.20;;;;;;;11.82;73.21;100345.39;460582;112;931639;-73
2021/05/11 00:14:47;;;;;;;0.51;0.51;;;;;;;11.82;73.23;100347.28;460693;112;931753;-72
2021/05/11 00:15:51;;;;;;;0.83;0.31;;;;;;;11.81;73.39;100351.07;459840;112;932875;-72
2021/05/11 00:16:54;;;;;;;0.20;0.20;;;;;;;11.80;73.35;100346.70;460103;112;931741;-72
2021/05/11 00:17:59;;;;;;;0.22;0.20;;;;;;;11.79;73.37;100337.66;460773;112;931778;-72
2021/05/11 00:19:06;;;;;;;0.17;0.17;;;;;;;11.80;73.33;100338.50;461288;112;924092;-72
2021/05/11 00:20:09;;;;;;;0.21;0.20;;;;;;;11.78;73.37;100340.62;451200;115;931634;-73
2021/05/11 00:21:13;;;;;;;0.79;0.15;;;;;;;11.77;73.47;100338.95;451411;115;924191;-74
2021/05/11 00:22:16;;;;;;;0.20;0.20;;;;;;;11.77;73.56;100333.48;450957;115;931582;-74
2021/05/11 00:23:20;;;;;;;0.21;0.17;;;;;;;11.76;73.66;100327.18;452100;115;924035;-72
2021/05/11 00:24:23;;;;;;;0.59;0.30;;;;;;;11.76;73.76;100332.64;450290;115;931713;-72
2021/05/11 00:25:27;;;;;;;0.29;0.29;;;;;;;11.76;73.87;100338.11;460730;112;932678;-75
2021/05/11 00:26:38;;;;;;;0.36;0.24;;;;;;;11.76;74.09;100338.11;461233;112;931941;-72
2021/05/11 00:27:41;;;;;;;0.76;0.25;;;;;;;11.77;74.15;100338.95;446215;117;924502;-72
2021/05/11 00:28:45;;;;;;;0.54;0.20;;;;;;;11.79;74.21;100340.40;453225;115;925255;-73
2021/05/11 00:29:48;;;;;;;0.42;0.24;;;;;;;11.80;74.34;100333.84;444084;117;930231;-72
2021/05/11 00:30:53;;;;;;;1.52;0.20;;;;;;;11.82;74.37;100334.46;451850;115;930771;-74
2021/05/11 00:31:58;;;;;;;0.78;0.35;;;;;;;11.84;74.38;100335.08;451557;115;924077;-73
2021/05/11 00:33:02;;;;;;;0.51;0.30;;;;;;;11.86;74.47;100337.56;450990;115;931655;-72
2021/05/11 00:34:05;;;;;;;0.31;0.31;;;;;;;11.86;74.54;100334.83;451322;115;922578;-73
2021/05/11 00:35:10;;;;;;;0.36;0.30;;;;;;;11.88;74.63;100333.55;450890;115;924765;-72
2021/05/11 00:36:13;;;;;;;0.25;0.24;;;;;;;11.90;74.74;100333.33;453685;115;925786;-72
2021/05/11 00:37:17;;;;;;;0.24;0.24;;;;;;;11.90;74.71;100342.36;448503;115;924092;-74
2021/05/11 00:38:21;;;;;;;0.20;0.20;;;;;;;11.92;74.77;100331.18;444646;116;922780;-74
2021/05/11 00:39:24;;;;;;;1.19;0.30;;;;;;;11.94;74.84;100335.37;445389;116;930064;-73
2021/05/11 00:40:29;;;;;;;0.59;0.21;;;;;;;11.95;74.77;100330.73;458862;112;922493;-73
2021/05/11 00:41:33;;;;;;;0.48;0.27;;;;;;;11.96;74.83;100341.41;453003;115;922585;-74
2021/05/11 00:42:36;;;;;;;0.99;0.26;;;;;;;11.97;74.82;100336.78;452480;115;922693;-74
2021/05/11 00:43:42;;;;;;;0.21;0.21;;;;;;;11.98;74.91;100335.73;443826;117;927003;-74
2021/05/11 00:44:45;;;;;;;0.36;0.36;;;;;;;11.98;74.95;100333.00;449064;115;930144;-74
2021/05/11 00:45:49;;;;;;;0.62;0.33;;;;;;;11.98;75.04;100324.80;450274;115;922592;-74
2021/05/11 00:46:56;;;;;;;1.20;0.35;;;;;;;11.99;75.13;100337.41;449154;115;922777;-73
2021/05/11 00:47:59;;;;;;;1.08;0.34;;;;;;;12.01;75.19;100332.55;446225;116;930244;-72
2021/05/11 00:49:03;;;;;;;0.25;0.25;;;;;;;12.01;75.31;100330.66;459789;112;922949;-74
2021/05/11 00:50:07;;;;;;;0.40;0.29;;;;;;;12.03;75.31;100327.67;441754;117;930170;-74
2021/05/11 00:51:12;;;;;;;0.52;0.48;;;;;;;12.02;75.25;100321.38;449692;115;926406;-72
2021/05/11 00:52:15;;;;;;;0.88;0.39;;;;;;;12.01;75.25;100314.27;448884;116;930084;-73
2021/05/11 00:53:19;;;;;;;1.00;0.36;;;;;;;12.00;75.32;100322.69;450221;115;922936;-72
2021/05/11 00:54:23;;;;;;;0.98;0.47;;;;;;;11.98;75.49;100322.91;450763;115;922878;-72
2021/05/11 00:55:28;;;;;;;0.35;0.29;;;;;;;11.98;75.61;100311.98;451376;115;930233;-72
2021/05/11 00:56:31;;;;;;;0.69;0.37;;;;;;;11.96;75.56;100314.09;438933;118;923224;-73
2021/05/11 00:57:35;;;;;;;0.52;0.24;;;;;;;11.95;75.70;100317.91;451024;115;922869;-73
2021/05/11 00:58:39;;;;;;;0.52;0.37;;;;;;;11.95;75.78;100311.61;450908;115;922505;-71
2021/05/11 00:59:43;;;;;;;1.04;0.30;;;;;;;11.93;75.80;100306.37;448379;115;922586;-74
2021/05/11 01:00:47;;;;;;;0.30;0.30;;;;;;;11.91;75.93;100310.41;440710;117;922546;-73
2021/05/11 01:01:51;;;;;;;0.29;0.29;;;;;;;11.90;76.06;100312.31;448888;115;923978;-73
2021/05/11 01:02:55;;;;;;;0.73;0.38;;;;;;;11.88;76.15;100303.50;448037;115;924131;-74
2021/05/11 01:03:58;;;;;;;0.61;0.29;;;;;;;11.89;76.20;100313.37;449023;115;924090;-72
2021/05/11 01:05:04;;;;;;;0.34;0.34;;;;;;;11.89;76.27;100310.63;444782;116;931593;-72
2021/05/11 01:06:09;;;;;;;0.36;0.30;;;;;;;11.90;76.29;100306.01;445274;116;923198;-73
2021/05/11 01:07:12;;;;;;;0.30;0.27;;;;;;;11.90;76.26;100312.31;444146;116;923394;-73
2021/05/11 01:08:16;;;;;;;0.89;0.39;;;;;;;11.90;76.29;100312.31;445385;116;924038;-72
2021/05/11 01:09:22;;;;;;;0.72;0.38;;;;;;;11.92;76.27;100301.97;444594;116;922676;-72
2021/05/11 01:10:28;;;;;;;0.64;0.38;;;;;;;11.92;76.15;100296.50;445404;116;924119;-72
2021/05/11 01:11:33;;;;;;;0.43;0.19;;;;;;;11.91;76.23;100292.09;445097;116;924451;-73
2021/05/11 01:12:36;;;;;;;1.57;0.29;;;;;;;11.90;76.19;100295.08;446262;116;924205;-72
2021/05/11 01:13:40;;;;;;;0.20;0.20;;;;;;;11.86;76.25;100293.85;445336;116;924107;-73
2021/05/11 01:14:43;;;;;;;0.35;0.30;;;;;;;11.84;76.30;100288.64;460625;112;924040;-72
2021/05/11 01:15:50;;;;;;;0.48;0.40;;;;;;;11.81;76.43;100288.24;449436;115;924466;-72
2021/05/11 01:16:59;;;;;;;0.27;0.26;;;;;;;11.79;76.48;100293.12;449912;115;931508;-72
2021/05/11 01:18:10;;;;;;;0.54;0.53;;;;;;;11.76;76.54;100293.56;449735;115;924481;-73
2021/05/11 01:19:22;;;;;;;0.52;0.44;;;;;;;11.72;76.67;100293.17;450114;115;923092;-73
2021/05/11 01:20:37;;;;;;;0.39;0.39;;;;;;;11.70;76.85;100298.02;450326;115;924544;-72
2021/05/11 01:21:54;;;;;;;0.59;0.37;;;;;;;11.70;77.06;100298.02;451123;115;924457;-72
2021/05/11 01:24:22;;;;;;;1.68;0.41;;;;;;;11.71;77.18;100299.69;449600;115;923341;-73
2021/05/11 01:25:25;;;;;;;0.21;0.21;;;;;;;11.73;77.07;100283.08;442955;116;922894;-73
2021/05/11 01:26:31;;;;;;;0.55;0.29;;;;;;;11.70;77.08;100282.47;459076;112;922509;-73
2021/05/11 01:28:52;;;;;;;0.49;0.40;;;;;;;11.67;77.18;100280.20;458924;112;925324;-72
2021/05/11 01:46:28;;;;;;;0.71;0.53;;;;;;;11.58;78.21;100287.02;453732;114;923462;-74
2021/05/11 01:48:30;;;;;;;0.99;0.62;;;;;;;11.55;78.20;100284.76;449651;114;924210;-72
2021/05/11 01:56:02;;;;;;;2.77;2.24;;;;;;;11.51;79.76;100263.61;445600;116;925245;-72
2021/05/11 02:23:07;;;;;;;4.49;2.49;;;;;;;11.16;83.55;100208.80;460207;112;922556;-74
2021/05/11 02:24:11;;;;;;;2.71;2.52;;;;;;;11.10;83.60;100215.99;449273;115;924995;-74
2021/05/11 02:25:15;;;;;;;2.73;2.48;;;;;;;11.09;83.56;100229.86;450362;115;922938;-73
2021/05/11 02:26:19;;;;;;;6.88;2.79;;;;;;;11.07;83.49;100213.73;450132;115;922676;-73
2021/05/11 02:27:23;;;;;;;2.81;2.27;;;;;;;11.07;83.40;100215.62;442254;117;930675;-72
2021/05/11 02:28:27;;;;;;;2.76;2.12;;;;;;;11.08;83.27;100207.19;448536;115;923037;-73
2021/05/11 02:29:31;;;;;;;3.37;3.08;;;;;;;11.08;82.77;100212.65;439418;117;922907;-74
2021/05/11 02:30:36;;;;;;;3.12;2.83;;;;;;;11.08;82.86;100218.11;451187;115;930636;-72
2021/05/11 02:31:40;;;;;;;3.39;2.73;;;;;;;11.08;82.46;100220.03;452264;115;922995;-72
2021/05/11 02:32:44;;;;;;;5.15;2.49;;;;;;;11.07;82.06;100232.83;451483;115;923676;-73
2021/05/11 02:33:48;;;;;;;3.79;2.92;;;;;;;11.08;82.10;100237.20;450170;115;922932;-73
2021/05/11 02:34:52;;;;;;;4.28;2.69;;;;;;;11.06;81.70;100236.61;445127;116;922620;-71
2021/05/11 02:35:55;;;;;;;5.03;3.02;;;;;;;11.06;81.59;100227.59;446040;116;930667;-72
2021/05/11 02:36:58;;;;;;;4.56;2.92;;;;;;;11.05;81.44;100226.76;453609;115;923043;-72
2021/05/11 02:38:02;;;;;;;5.04;2.74;;;;;;;11.03;81.10;100242.50;450682;115;922575;-73
2021/05/11 02:39:07;;;;;;;5.68;2.94;;;;;;;11.03;81.01;100220.69;461169;112;923961;-73
2021/05/11 02:40:13;;;;;;;3.26;2.51;;;;;;;11.01;81.04;100233.73;462643;112;928685;-73
2021/05/11 02:41:16;;;;;;;6.63;2.62;;;;;;;10.99;81.06;100219.47;460952;112;922565;-72
2021/05/11 02:42:20;;;;;;;2.58;2.39;;;;;;;10.98;81.08;100233.33;454008;115;926869;-72
2021/05/11 02:43:33;;;;;;;4.15;2.94;;;;;;;10.98;81.04;100223.26;460676;112;930692;-73
2021/05/11 02:44:40;;;;;;;2.93;2.27;;;;;;;10.98;80.87;100223.26;460190;112;924011;-71
2021/05/11 02:45:39;;;;;;;3.85;3.19;;;;;;;10.99;80.76;100230.39;460013;112;926205;-73
2021/05/11 02:46:43;;;;;;;3.01;2.66;;;;;;;10.98;80.22;100223.26;461802;112;924091;-72
2021/05/11 02:47:52;;;;;;;4.55;2.21;;;;;;;10.98;80.43;100212.34;454290;114;923759;-73
2021/05/11 02:48:54;;;;;;;4.59;2.45;;;;;;;11.00;80.48;100231.22;455059;112;923288;-72
2021/05/11 02:50:04;;;;;;;4.54;2.33;;;;;;;11.00;80.48;100226.61;453811;114;924841;-72
2021/05/11 02:51:04;;;;;;;7.06;2.33;;;;;;;11.02;80.21;100229.12;453969;112;923749;-73
2021/05/11 02:52:08;;;;;;;2.15;1.95;;;;;;;11.04;80.05;100229.70;462257;112;923039;-72
2021/05/11 02:53:12;;;;;;;2.37;2.08;;;;;;;11.05;79.98;100224.03;460992;112;922806;-74
2021/05/11 02:54:15;;;;;;;4.67;2.34;;;;;;;11.06;79.80;100222.14;461196;112;923668;-72
2021/05/11 02:55:20;;;;;;;4.91;2.92;;;;;;;11.06;79.65;100219.41;460963;112;924203;-73
2021/05/11 02:56:25;;;;;;;2.97;2.32;;;;;;;11.04;79.59;100216.90;451043;115;924090;-71
2021/05/11 02:57:28;;;;;;;3.62;2.34;;;;;;;11.04;79.67;100214.17;445184;117;924077;-73
2021/05/11 02:58:34;;;;;;;3.64;2.52;;;;;;;11.04;79.74;100218.80;442262;117;924068;-72
2021/05/11 02:59:38;;;;;;;2.82;2.24;;;;;;;11.04;80.74;100227.81;451197;115;924064;-73
2021/05/11 03:00:45;;;;;;;3.02;2.43;;;;;;;11.03;80.91;100223.41;444687;117;923117;-72
2021/05/11 03:01:48;;;;;;;2.89;2.30;;;;;;;11.02;80.58;100224.50;451013;115;924877;-72
2021/05/11 03:02:53;;;;;;;3.99;2.38;;;;;;;11.02;80.29;100221.77;446868;116;931708;-72
2021/05/11 03:03:57;;;;;;;4.07;2.08;;;;;;;11.03;80.08;100226.14;447421;116;924397;-72
2021/05/11 03:05:00;;;;;;;5.26;2.10;;;;;;;11.03;80.37;100220.69;447899;116;924019;-74
2021/05/11 03:06:04;;;;;;;4.25;2.43;;;;;;;11.02;80.21;100224.50;447775;116;922918;-71
2021/05/11 03:07:08;;;;;;;3.04;2.50;;;;;;;11.02;80.41;100229.95;448553;116;922662;-72
2021/05/11 03:08:14;;;;;;;2.55;2.26;;;;;;;11.02;80.18;100219.05;452770;115;922558;-73
2021/05/11 03:09:18;;;;;;;2.39;1.98;;;;;;;11.03;80.79;100226.14;453111;115;932562;-73
2021/05/11 03:10:23;;;;;;;3.62;2.07;;;;;;;11.03;81.27;100220.69;453048;115;922971;-73
2021/05/11 03:11:26;;;;;;;4.66;2.41;;;;;;;11.05;81.49;100226.76;451564;115;922891;-73
2021/05/11 03:12:30;;;;;;;4.28;2.24;;;;;;;11.05;81.59;100224.03;450639;115;922698;-73
2021/05/11 03:13:34;;;;;;;4.83;2.63;;;;;;;11.08;81.55;100217.30;450320;116;922488;-71
2021/05/11 03:14:37;;;;;;;2.63;2.33;;;;;;;11.09;81.62;100221.67;452731;115;930639;-73
2021/05/11 03:15:41;;;;;;;2.18;1.99;;;;;;;11.09;81.52;100222.50;452152;115;922534;-73
2021/05/11 03:16:46;;;;;;;2.56;2.39;;;;;;;11.11;81.20;100227.75;451491;115;922833;-75
2021/05/11 03:17:50;;;;;;;4.34;2.32;;;;;;;11.12;81.19;100218.50;444831;116;922899;-72
2021/05/11 03:18:54;;;;;;;3.72;2.70;;;;;;;11.12;81.23;100224.80;446303;116;922586;-74
2021/05/11 03:19:58;;;;;;;2.73;2.14;;;;;;;11.12;81.21;100226.69;452909;115;922636;-73
2021/05/11 03:21:01;;;;;;;5.53;2.22;;;;;;;11.10;81.81;100229.64;453683;115;922434;-76
2021/05/11 03:22:07;;;;;;;4.22;2.22;;;;;;;11.10;81.35;100221.45;452230;115;930513;-74
2021/05/11 03:23:11;;;;;;;3.32;2.36;;;;;;;11.11;81.18;100230.48;444020;119;922846;-73
2021/05/11 03:24:15;;;;;;;2.86;2.10;;;;;;;11.11;80.96;100235.93;451080;115;923135;-72
2021/05/11 03:25:18;;;;;;;3.10;2.27;;;;;;;11.11;80.99;100238.66;451437;115;931801;-74
2021/05/11 03:26:22;;;;;;;3.96;3.08;;;;;;;11.08;81.75;100217.30;448243;116;926004;-72
2021/05/11 03:27:26;;;;;;;2.47;2.22;;;;;;;11.07;81.58;100215.62;446225;116;924065;-73
2021/05/11 03:28:30;;;;;;;4.52;2.15;;;;;;;11.06;81.29;100217.52;446884;116;922762;-73
2021/05/11 03:29:33;;;;;;;4.12;3.15;;;;;;;11.03;82.10;100209.77;454098;115;930671;-73
2021/05/11 03:30:40;;;;;;;4.42;2.64;;;;;;;11.03;82.03;100217.95;453959;115;924041;-72
2021/05/11 03:31:43;;;;;;;2.38;2.17;;;;;;;11.02;82.10;100226.39;442185;117;923979;-73
2021/05/11 03:32:47;;;;;;;5.89;2.31;;;;;;;11.00;82.24;100215.69;449958;116;923983;-74
2021/05/11 03:33:50;;;;;;;5.96;2.51;;;;;;;10.99;82.21;100215.91;460161;112;924795;-73
2021/05/11 03:34:53;;;;;;;2.87;2.08;;;;;;;11.00;82.28;100210.23;460372;112;932055;-73
2021/05/11 03:35:57;;;;;;;2.60;2.29;;;;;;;11.02;82.16;100204.56;461464;112;924094;-74
2021/05/11 03:37:01;;;;;;;3.22;2.38;;;;;;;11.04;82.18;100208.71;449930;116;925493;-73
2021/05/11 03:38:06;;;;;;;5.28;3.69;;;;;;;11.03;82.71;100198.86;449103;115;931875;-72
2021/05/11 03:39:10;;;;;;;2.98;2.23;;;;;;;11.04;82.53;100211.44;452303;115;923974;-74
2021/05/11 03:40:14;;;;;;;3.81;2.28;;;;;;;11.04;82.26;100203.26;451687;115;924103;-71
2021/05/11 03:41:20;;;;;;;3.01;2.36;;;;;;;11.06;82.21;100213.95;440987;117;922867;-73
2021/05/11 03:42:36;;;;;;;4.58;2.73;;;;;;;11.06;82.02;100203.88;448705;115;930303;-73
2021/05/11 03:43:44;;;;;;;;;;;;;;;11.10;81.80;100202.35;454747;115;922927;-72
2021/05/11 03:44:40;;;;;;;2.51;2.28;;;;;;;11.10;81.60;100207.81;446319;116;922579;-73
2021/05/11 03:45:49;;;;;;;2.57;2.19;;;;;;;11.11;81.56;100212.21;453961;115;922514;-73
2021/05/11 03:46:50;;;;;;;3.11;2.40;;;;;;;11.12;81.46;100216.61;451550;115;922455;-74
2021/05/11 03:47:55;;;;;;;2.24;2.01;;;;;;;11.12;81.47;100213.89;454197;115;923899;-72
2021/05/11 03:48:58;;;;;;;3.19;1.81;;;;;;;11.13;81.21;100215.56;437834;119;924034;-71
2021/05/11 03:50:02;;;;;;;3.54;2.33;;;;;;;11.14;80.95;100214.47;438706;117;924006;-71
2021/05/11 03:51:06;;;;;;;3.96;2.66;;;;;;;11.15;81.03;100227.06;451622;115;924072;-73
2021/05/11 03:52:09;;;;;;;2.11;1.94;;;;;;;11.13;80.86;100221.02;452976;115;924078;-73
2021/05/11 03:53:14;;;;;;;3.61;2.27;;;;;;;11.12;80.87;100230.26;446978;116;924015;-71
2021/05/11 03:54:18;;;;;;;4.82;2.84;;;;;;;11.11;80.73;100217.67;446637;116;925289;-71
2021/05/11 03:55:21;;;;;;;2.97;2.08;;;;;;;11.11;80.74;100214.94;447360;116;923714;-72
2021/05/11 03:56:26;;;;;;;2.46;2.26;;;;;;;11.11;80.94;100223.13;446525;116;923112;-73
2021/05/11 03:57:30;;;;;;;3.87;2.33;;;;;;;11.12;80.88;100215.78;453726;115;922440;-72
2021/05/11 03:58:34;;;;;;;2.65;2.06;;;;;;;11.13;80.74;100215.56;451971;115;922646;-72
2021/05/11 03:59:37;;;;;;;2.76;2.34;;;;;;;11.14;80.63;100208.17;450217;115;931839;-71
2021/05/11 04:00:42;;;;;;;2.71;2.29;;;;;;;11.15;80.80;100224.33;452173;115;930996;-72
2021/05/11 04:01:46;;;;;;;3.56;2.35;;;;;;;11.14;80.87;100222.66;451763;115;922839;-71
2021/05/11 04:02:49;;;;;;;3.52;2.12;;;;;;;11.13;80.94;100226.47;452657;115;922570;-72
2021/05/11 04:04:05;;;;;;;3.68;2.29;;;;;;;11.14;80.92;100244.48;451674;115;930538;-75
2021/05/11 04:05:10;;;;;;;3.52;2.36;;;;;;;11.14;80.81;100244.48;452536;115;923113;-73
2021/05/11 04:06:14;;;;;;;2.96;1.88;;;;;;;11.14;80.69;100241.76;443737;117;922905;-73
2021/05/11 04:07:17;;;;;;;4.88;1.99;;;;;;;11.15;80.76;100231.68;441084;118;923083;-73
2021/05/11 04:09:37;;;;;;;2.35;2.03;;;;;;;11.15;80.64;100232.52;450869;114;922531;-73
2021/05/11 04:10:43;;;;;;;3.54;2.04;;;;;;;11.15;80.55;100237.14;453507;112;922490;-74
2021/05/11 04:16:09;;;;;;;2.64;2.03;;;;;;;11.15;80.59;100239.86;460789;112;922902;-72
2021/05/11 04:16:44;;;;;;;4.19;3.55;;;;;;;11.14;80.63;100252.67;460863;112;923160;-71
2021/05/11 04:17:48;;;;;;;5.79;3.28;;;;;;;11.14;80.72;100268.20;461255;112;922700;-73
2021/05/11 04:18:52;;;;;;;3.32;2.61;;;;;;;11.14;80.78;100279.95;461890;112;930582;-72
2021/05/11 04:19:56;;;;;;;4.09;1.76;;;;;;;11.16;80.78;100290.66;460989;112;923238;-72
2021/05/11 04:20:59;;;;;;;1.74;1.03;;;;;;;11.19;80.80;100285.57;462063;112;922524;-74
2021/05/11 04:22:03;;;;;;;0.69;0.62;;;;;;;11.22;80.50;100298.78;460619;112;930431;-77
2021/05/11 04:23:06;;;;;;;0.72;0.72;;;;;;;11.25;80.20;100294.75;461107;112;922709;-70
2021/05/11 04:24:10;;;;;;;0.36;0.36;;;;;;;11.26;80.10;100301.88;460208;112;924065;-72
2021/05/11 04:25:15;;;;;;;0.40;0.20;;;;;;;11.27;79.80;100311.74;460130;112;924522;-74
2021/05/11 04:26:20;;;;;;;0.31;0.31;;;;;;;11.27;79.46;100300.83;451997;114;926751;-76
2021/05/11 04:27:24;;;;;;;0.22;0.22;;;;;;;11.26;79.18;100301.88;454168;112;922909;-73
2021/05/11 04:28:28;;;;;;;0.37;0.19;;;;;;;11.24;78.93;100299.41;461964;112;925162;-72
2021/05/11 04:29:34;;;;;;;0.05;0.04;;;;;;;11.23;78.76;100292.27;462035;112;924018;-73
2021/05/11 04:30:37;;;;;;;0.10;0.10;;;;;;;11.23;78.67;100292.27;443988;117;925147;-73
2021/05/11 04:31:41;;;;;;;0.00;0.00;;;;;;;11.22;78.60;100293.33;443014;117;925329;-73
2021/05/11 04:32:44;;;;;;;0.07;0.07;;;;;;;11.23;78.49;100291.44;450731;115;930089;-74
2021/05/11 04:33:48;;;;;;;0.13;0.09;;;;;;;11.22;78.35;100306.97;450774;115;931696;-74
2021/05/11 04:34:51;;;;;;;0.45;0.30;;;;;;;11.21;78.28;100309.91;451117;115;932867;-71
2021/05/11 04:35:55;;;;;;;0.94;0.89;;;;;;;11.19;78.13;100323.78;451294;115;924125;-71
2021/05/11 04:36:58;;;;;;;0.51;0.51;;;;;;;11.18;78.13;100321.30;451695;115;923796;-74
2021/05/11 04:38:02;;;;;;;0.72;0.35;;;;;;;11.16;78.13;100329.70;452094;115;932046;-71
2021/05/11 04:39:06;;;;;;;0.46;0.45;;;;;;;11.16;78.22;100334.31;446661;116;933084;-71
2021/05/11 04:40:10;;;;;;;0.57;0.19;;;;;;;11.17;78.23;100336.83;446895;116;930437;-73
2021/05/11 04:41:16;;;;;;;0.14;0.04;;;;;;;11.17;78.16;100342.29;447681;116;922902;-78
2021/05/11 04:42:19;;;;;;;0.28;0.28;;;;;;;11.17;78.16;100342.29;447092;116;922616;-75
2021/05/11 04:43:25;;;;;;;0.20;0.19;;;;;;;11.17;78.08;100345.02;447630;116;923690;-73
2021/05/11 04:44:32;;;;;;;0.45;0.30;;;;;;;11.18;78.08;100346.69;446835;116;930567;-72
2021/05/11 04:45:34;;;;;;;0.10;0.10;;;;;;;11.18;77.96;100343.96;453439;115;922534;-73
2021/05/11 04:46:44;;;;;;;0.25;0.14;;;;;;;11.18;77.87;100346.69;442088;119;922516;-74
2021/05/11 04:47:47;;;;;;;0.10;0.09;;;;;;;11.19;77.82;100350.27;461491;112;922435;-69
2021/05/11 04:48:52;;;;;;;0.19;0.12;;;;;;;11.19;77.81;100340.15;462481;112;922519;-69
2021/05/11 04:49:59;;;;;;;0.26;0.12;;;;;;;11.19;77.63;100342.07;461290;112;923038;-69
2021/05/11 04:51:02;;;;;;;0.20;0.20;;;;;;;11.18;77.58;100343.96;461751;112;922864;-70
2021/05/11 04:52:06;;;;;;;0.29;0.10;;;;;;;11.18;77.60;100349.42;461383;112;923265;-69
2021/05/11 04:53:11;;;;;;;0.13;0.13;;;;;;;11.20;77.59;100354.63;461197;112;923014;-70
2021/05/11 04:54:14;;;;;;;0.64;0.56;;;;;;;11.20;77.46;100350.02;459262;112;923055;-69
2021/05/11 04:55:19;;;;;;;0.27;0.23;;;;;;;11.21;77.37;100350.84;459821;112;931643;-69
2021/05/11 04:56:22;;;;;;;0.24;0.21;;;;;;;11.22;77.37;100353.36;460274;112;931556;-70
2021/05/11 04:57:26;;;;;;;0.24;0.10;;;;;;;11.22;77.23;100361.55;459832;112;932739;-69
2021/05/11 04:58:30;;;;;;;0.10;0.10;;;;;;;11.22;76.99;100360.72;460976;112;926083;-68
2021/05/11 04:59:33;;;;;;;0.10;0.10;;;;;;;11.20;76.94;100363.66;446732;116;930260;-70
2021/05/11 05:00:37;;;;;;;0.24;0.20;;;;;;;11.19;76.76;100361.17;453207;115;930216;-70
2021/05/11 05:01:50;;;;;;;0.10;0.10;;;;;;;11.18;76.63;100371.25;451527;115;922803;-68
2021/05/11 05:03:17;;;;;;;0.47;0.19;;;;;;;11.17;76.59;100379.66;458477;112;923651;-69
2021/05/11 05:04:20;;;;;;;0.09;0.09;;;;;;;11.17;76.52;100385.95;461127;112;922532;-69
2021/05/11 05:05:24;;;;;;;0.17;0.10;;;;;;;11.16;76.52;100387.00;445884;116;930261;-69
2021/05/11 05:06:28;;;;;;;0.20;0.20;;;;;;;11.17;76.51;100390.57;453079;115;923926;-68
2021/05/11 05:07:31;;;;;;;0.17;0.12;;;;;;;11.17;76.48;100396.03;442167;117;924124;-70
2021/05/11 05:08:36;;;;;;;0.14;0.09;;;;;;;11.15;76.32;100393.52;460253;112;932115;-69
2021/05/11 05:09:39;;;;;;;0.27;0.10;;;;;;;11.15;76.21;100390.78;460583;112;923928;-71
2021/05/11 05:10:42;;;;;;;0.13;0.13;;;;;;;11.15;75.81;100398.97;461197;112;925466;-70
2021/05/11 05:11:46;;;;;;;0.20;0.20;;;;;;;11.14;75.62;100405.48;460546;112;932107;-69
2021/05/11 05:12:49;;;;;;;0.20;0.13;;;;;;;11.14;75.55;100405.48;461248;112;924049;-69
2021/05/11 05:13:53;;;;;;;0.24;0.10;;;;;;;11.13;75.30;100400.27;460987;112;924631;-70
2021/05/11 05:14:56;;;;;;;0.10;0.10;;;;;;;11.12;75.26;100410.34;460865;112;926634;-68
2021/05/11 05:16:00;;;;;;;0.30;0.10;;;;;;;11.10;75.25;100415.18;445531;116;932392;-68
2021/05/11 05:17:03;;;;;;;0.11;0.11;;;;;;;11.09;75.33;100412.66;453868;115;927996;-70
2021/05/11 05:18:07;;;;;;;0.23;0.10;;;;;;;11.09;75.48;100426.31;453594;115;931653;-70
2021/05/11 05:19:11;;;;;;;0.38;0.11;;;;;;;11.09;75.46;100415.39;442534;118;931532;-69
2021/05/11 05:20:14;;;;;;;0.22;0.13;;;;;;;11.08;75.48;100411.83;460546;112;934191;-70
2021/05/11 05:21:18;;;;;;;0.26;0.20;;;;;;;11.09;75.44;100421.69;459850;112;931579;-70
2021/05/11 05:22:22;;;;;;;0.75;0.22;;;;;;;11.08;75.28;100420.01;459802;112;924110;-69
2021/05/11 05:23:32;;;;;;;0.42;0.36;;;;;;;11.09;74.85;100424.42;460519;112;924613;-69
2021/05/11 05:24:41;;;;;;;0.53;0.39;;;;;;;11.09;74.66;100429.87;460972;112;930120;-71
2021/05/11 05:25:51;;;;;;;0.59;0.55;;;;;;;11.09;74.67;100429.87;460509;112;924372;-71
2021/05/11 05:26:55;;;;;;;;;;;;;;;11.09;74.68;100421.69;463773;112;925324;-70
2021/05/11 05:28:00;;;;;;;0.70;0.70;;;;;;;11.10;74.63;100428.83;460627;112;923800;-70
2021/05/11 05:29:04;;;;;;;0.51;0.49;;;;;;;11.10;74.62;100423.36;462378;112;923954;-70
2021/05/11 05:30:12;;;;;;;0.68;0.31;;;;;;;11.10;74.32;100427.98;453507;115;926383;-70
2021/05/11 05:31:15;;;;;;;2.09;0.20;;;;;;;11.11;74.30;100426.94;453311;115;922703;-68
2021/05/11 05:32:19;;;;;;;0.69;0.64;;;;;;;11.11;74.16;100438.69;461004;112;924426;-70
2021/05/11 05:33:31;;;;;;;1.16;0.68;;;;;;;11.13;74.07;100442.04;460278;112;932347;-71
2021/05/11 05:34:35;;;;;;;0.62;0.62;;;;;;;11.16;74.11;100448.93;461173;112;931684;-69
2021/05/11 05:35:39;;;;;;;0.36;0.36;;;;;;;11.18;73.88;100444.09;461948;112;924045;-70
2021/05/11 05:36:42;;;;;;;0.23;0.20;;;;;;;11.20;73.62;100437.34;462323;112;926908;-71
2021/05/11 05:37:46;;;;;;;0.45;0.21;;;;;;;11.24;73.69;100448.67;458191;112;924631;-69
2021/05/11 05:38:50;;;;;;;0.19;0.16;;;;;;;11.27;73.79;100450.94;449226;117;924092;-70
2021/05/11 05:39:57;;;;;;;0.21;0.20;;;;;;;11.30;73.82;100450.52;449147;115;924137;-70
2021/05/11 05:41:07;;;;;;;0.49;0.31;;;;;;;11.34;73.93;100454.46;449432;116;932184;-70
2021/05/11 05:42:05;;;;;;;0.37;0.36;;;;;;;11.39;73.92;100457.36;448586;116;925388;-69
2021/05/11 05:43:08;;;;;;;0.36;0.31;;;;;;;11.45;73.54;100455.62;448315;115;924009;-71
2021/05/11 05:44:12;;;;;;;0.30;0.21;;;;;;;11.47;73.32;100459.78;443630;116;924207;-70
2021/05/11 05:45:16;;;;;;;0.38;0.20;;;;;;;11.49;73.19;100463.14;459441;112;932475;-69
2021/05/11 05:46:23;;;;;;;0.25;0.25;;;;;;;11.52;73.06;100462.67;459966;112;922464;-71
2021/05/11 05:47:27;;;;;;;0.33;0.30;;;;;;;11.55;73.11;100453.22;458361;112;922633;-71
2021/05/11 05:48:30;;;;;;;0.74;0.30;;;;;;;11.59;73.09;100465.35;458743;112;922930;-70
2021/05/11 05:49:48;;;;;;;0.38;0.38;;;;;;;11.63;72.86;100452.95;452325;115;922677;-70
2021/05/11 05:50:57;;;;;;;1.13;0.31;;;;;;;11.64;72.60;100446.39;440585;118;930360;-70
2021/05/11 05:52:06;;;;;;;1.89;1.77;;;;;;;11.66;72.65;100449.75;449528;115;923027;-72
2021/05/11 05:53:12;;;;;;;1.44;1.03;;;;;;;11.67;72.23;100440.50;450302;115;923051;-69
2021/05/11 05:54:10;;;;;;;1.94;1.80;;;;;;;11.70;72.15;100438.14;440631;117;923089;-70
2021/05/11 05:55:14;;;;;;;2.62;0.54;;;;;;;11.75;71.91;100447.58;450786;115;922970;-71